メインページ
METAR-TAF:

METAR-TAF

空港 :

ポンタ・デルガダ, !acores!, ポルトガル

ポンタ・デルガダ空港

緯度: 37-44N, 経度: 025-42W, 海抜: 71m

現時点の気象観測

当レポートは11分前の14:30(UTC)に作成
西/南西の風 9kt
気温 23°C
湿度 89%
気圧 1023 hPa
視程10km以上
高度1000ftの雲はほとんどない
高度1400ftの雲は散在している

METAR: LPPD 261430Z 25009KT 9999 FEW010 SCT014 23/21 Q1023

時間: 14:41 (14:41 UTC)

予報

当レポートは3時間41分前の11:00(UTC)に作成
予報は26日の 12時(UTC)から 27日の 12時(UTC)まで有効
西の風 10kt
視程10km以上
高度1500ftの雲は散在している
26日の 21時(UTC)から 26日の 24時(UTC)まで徐々に
南西の風 10kt
高度600ftの雲は散在している
高度1200ftの千切れ雲あり
27日の 00時(UTC)から 27日の 09時(UTC)まで一時的に
視程: 3000m
高度200ftの雲は散在している
高度400ftの千切れ雲あり
霧雨, 雨, 靄
27日の 09時(UTC)から 27日の 12時(UTC)まで徐々に
高度800ftの雲はほとんどない
高度1500ftの雲は散在している

TAF: LPPD 261100Z 2612/2712 26010KT 9999 SCT015 BECMG 2621/2624 23010KT SCT006 BKN012 TEMPO 2700/2709 3000 DZRA BR SCT002 BKN004 BECMG 2709/2712 FEW008 SCT015

4,000以上の空港の気象観測と天気予報(METAR報とTAF報)

利用可能な観測所は地図上に黄色い丸と赤い丸で示す。

丸の上にカーソルを重ねると観測所名を参照できる。

次にクリックすると気象観測と天気予報を参照できる。

マップの切り替え:黒色「×」印の緑ボタンをクリックして拡大、「-」印の緑ボタンをクリックして縮小、緑色の三角印をクリックして隣りの地図に切り替え


METAR-TAF: